Florence, KY

11:10 AM EST on December 28, 2014 (GMT -0500)
K4JRU | Change Station
CLOSE
Current Station
Personal Weather Station
Location: Independence, KY
Elevation: 892 ft
Nearby Weather Stations

Elev 892 ft 38.97 °N, 84.60 °W | Updated 15 minutes ago

Overcast
Overcast
34.4 °F
Feels Like 31 °F
N
4.0
Wind Variable Wind from North
Gusts 11.0 mph

Today
High -- | Low -- °F
--% Chance of Precip.
Yesterday
High -- | Low -- °F
Precip. -- in
7:56 AM 5:23 PM
Waxing Crescent, 49% visible
Pressure 30.16 in
Visibility 5.0 miles
Clouds Overcast 800 ft
Windchill 31 °F
Dew Point 33 °F
Humidity 95%
Rainfall -999.00 in
Snow Depth Not available.
UV 1 out of 12
Pollen .10 out of 12
Air Quality Not available.
Flu Activity Not available.
METAR KCVG 281552Z 35010KT 5SM HZ OVC008 01/M02 A3015 RMK AO2 SLP213 T00111022

More Conditions Fewer Conditions

Pressure 30.16 in
Visibility 5.0 miles
Clouds Overcast 800 ft
Windchill 31 °F
Dew Point 33 °F
Humidity 95%
Rainfall -999.00 in
Snow Depth Not available.
UV 1 out of 12
Pollen .10 out of 12
Air Quality Not available.
Flu Activity Not available.
METAR KCVG 281552Z 35010KT 5SM HZ OVC008 01/M02 A3015 RMK AO2 SLP213 T00111022

More Conditions Fewer Conditions

10-Day Weather Forecast

Almanac

Astronomy

Dec. 28, 2014 Rise Set
Actual Time
Civil Twilight
Nautical Twilight
Astronomical Twilight
Moon
Length of Visible Light
Length of Day
Tomorrow will be .
, % of the Moon is Illuminated

Today's Extremes

State Highs State Lows

Community

WunderPhotos

Upload Photos

1,781,318 photos uploaded!

WunderBlogs® & News

Nearby

Air Quality

  Air Quality AQ Index Pollutant
Not available.

Snow Depth

Station Depth Elevation

Earthquake Activity

City Distance Mag. Time & Date
Minimum magnitude displayed is 2.5.

Coastal Water Temperatures

Place Temperature

Nearby Weather Stations